createdAt,value
2023-01-30T00:02:20.562Z,19.58
2023-01-30T00:04:50.247Z,21.88
2023-01-30T00:07:18.483Z,21.17
2023-01-30T00:09:47.660Z,19.63
2023-01-30T00:12:16.051Z,20.75
2023-01-30T00:14:44.279Z,18.63
2023-01-30T00:17:12.645Z,19.42
2023-01-30T00:19:40.906Z,20.60
2023-01-30T00:22:10.589Z,22.65
2023-01-30T00:24:39.158Z,19.33
2023-01-30T00:27:07.834Z,20.05
2023-01-30T00:29:37.478Z,21.15
2023-01-30T00:32:05.992Z,22.63
2023-01-30T00:34:34.340Z,21.65
2023-01-30T00:37:08.401Z,20.50
2023-01-30T00:39:38.376Z,21.10
2023-01-30T00:42:24.286Z,21.48
2023-01-30T00:45:09.949Z,19.70
2023-01-30T00:47:38.262Z,23.73
2023-01-30T00:50:07.740Z,22.67
2023-01-30T00:52:37.425Z,20.65
2023-01-30T00:55:08.932Z,28.63
2023-01-30T00:57:37.209Z,22.35
2023-01-30T01:00:09.114Z,23.48
2023-01-30T01:02:37.574Z,31.13
2023-01-30T01:05:07.031Z,20.38
2023-01-30T01:07:35.316Z,19.45
2023-01-30T01:10:03.635Z,18.50
2023-01-30T01:12:33.193Z,20.10
2023-01-30T01:15:01.517Z,19.30
2023-01-30T01:17:30.207Z,20.77
2023-01-30T01:19:59.375Z,19.40
2023-01-30T01:22:27.999Z,18.65
2023-01-30T01:24:56.343Z,18.75
2023-01-30T01:27:25.007Z,20.95
2023-01-30T01:29:54.607Z,20.08
2023-01-30T01:32:23.238Z,20.08
2023-01-30T01:34:51.715Z,19.55
2023-01-30T01:37:20.181Z,21.98
2023-01-30T01:40:06.192Z,18.60
2023-01-30T01:42:37.176Z,20.63
2023-01-30T01:45:19.632Z,21.08
2023-01-30T01:47:59.327Z,19.67
2023-01-30T01:50:33.150Z,22.67
2023-01-30T01:53:03.314Z,20.25
2023-01-30T01:55:32.567Z,21.48
2023-01-30T01:58:06.896Z,19.17
2023-01-30T02:00:37.590Z,20.42
2023-01-30T02:03:13.658Z,20.10
2023-01-30T02:05:48.052Z,19.15
2023-01-30T02:08:20.812Z,20.73
2023-01-30T02:10:59.917Z,21.55
2023-01-30T02:13:29.224Z,21.40
2023-01-30T02:16:01.778Z,20.92
2023-01-30T02:18:32.404Z,19.95
2023-01-30T02:22:11.574Z,19.73
2023-01-30T02:25:19.952Z,20.17
2023-01-30T02:28:37.453Z,18.30
2023-01-30T02:31:29.248Z,20.08
2023-01-30T02:34:15.025Z,22.80
2023-01-30T02:36:54.588Z,20.55
2023-01-30T02:39:35.198Z,21.42
2023-01-30T02:42:11.025Z,22.38
2023-01-30T02:44:51.888Z,18.77
2023-01-30T02:47:27.063Z,19.08
2023-01-30T02:50:04.893Z,18.83
2023-01-30T02:52:34.549Z,22.65
2023-01-30T02:55:10.703Z,20.05
2023-01-30T02:57:39.794Z,22.55
2023-01-30T03:00:11.026Z,23.45
2023-01-30T03:03:18.145Z,25.27
2023-01-30T03:06:11.905Z,21.98
2023-01-30T03:08:53.517Z,25.52
2023-01-30T03:11:26.246Z,23.00
2023-01-30T03:14:00.156Z,27.00
2023-01-30T03:16:35.247Z,21.27
2023-01-30T03:21:35.142Z,23.75
2023-01-30T03:24:03.489Z,22.90
2023-01-30T03:26:36.470Z,25.20
2023-01-30T03:29:06.229Z,21.10
2023-01-30T03:31:34.609Z,18.80
2023-01-30T03:34:04.462Z,20.33
2023-01-30T03:36:33.869Z,21.75
2023-01-30T03:39:02.376Z,20.25
2023-01-30T03:41:30.998Z,21.88
2023-01-30T03:43:59.345Z,19.95
2023-01-30T03:46:27.917Z,21.85
2023-01-30T03:48:56.293Z,18.33
2023-01-30T03:51:26.231Z,18.60
2023-01-30T03:53:54.787Z,21.27
2023-01-30T03:56:23.915Z,20.42
2023-01-30T03:58:52.486Z,20.02
2023-01-30T04:01:25.897Z,21.95
2023-01-30T04:03:54.185Z,18.85
2023-01-30T04:06:22.571Z,21.90
2023-01-30T04:08:55.377Z,18.63
2023-01-30T04:11:37.896Z,19.42
2023-01-30T04:14:06.417Z,16.67
2023-01-30T04:16:41.339Z,20.60
2023-01-30T04:19:28.180Z,16.60
2023-01-30T04:21:56.487Z,17.40
2023-01-30T04:24:26.174Z,18.92
2023-01-30T04:26:54.525Z,17.90
2023-01-30T04:29:22.946Z,18.52
2023-01-30T04:31:53.690Z,16.33
2023-01-30T04:34:25.340Z,16.88
2023-01-30T04:36:53.953Z,14.88
2023-01-30T04:39:22.392Z,16.70
2023-01-30T04:41:52.202Z,15.13
2023-01-30T04:44:20.776Z,17.60
2023-01-30T04:47:02.779Z,16.08
2023-01-30T04:49:31.135Z,14.88
2023-01-30T04:52:01.484Z,15.73
2023-01-30T04:54:30.040Z,13.95
2023-01-30T04:56:59.615Z,15.73
2023-01-30T04:59:27.998Z,16.35
2023-01-30T05:01:57.125Z,15.48
2023-01-30T05:04:25.505Z,26.08
2023-01-30T05:06:53.819Z,21.33
2023-01-30T05:09:22.251Z,18.85
2023-01-30T05:11:50.472Z,13.48
2023-01-30T05:14:20.239Z,13.43
2023-01-30T05:16:48.614Z,12.57
2023-01-30T05:19:16.879Z,16.25
2023-01-30T05:21:45.299Z,14.70
2023-01-30T05:24:13.544Z,15.10
2023-01-30T05:26:41.966Z,19.42
2023-01-30T05:29:12.011Z,17.85
2023-01-30T05:31:41.735Z,16.33
2023-01-30T05:34:12.567Z,13.50
2023-01-30T05:36:40.904Z,17.15
2023-01-30T05:39:09.224Z,12.32
2023-01-30T05:41:37.449Z,16.40
2023-01-30T05:44:06.482Z,17.15
2023-01-30T05:46:34.853Z,15.55
2023-01-30T05:49:04.697Z,17.75
2023-01-30T05:51:34.812Z,14.82
2023-01-30T05:54:03.592Z,11.20
2023-01-30T05:56:33.403Z,12.30
2023-01-30T05:59:03.498Z,14.38
2023-01-30T06:01:32.481Z,12.15
2023-01-30T06:04:00.754Z,12.77
2023-01-30T06:06:30.493Z,16.90
2023-01-30T06:08:59.153Z,14.20
2023-01-30T06:11:27.853Z,13.52
2023-01-30T06:13:56.200Z,12.35
2023-01-30T06:16:24.544Z,15.52
2023-01-30T06:18:52.945Z,12.85
2023-01-30T06:21:21.244Z,13.30
2023-01-30T06:23:51.110Z,13.43
2023-01-30T06:26:19.329Z,13.18
2023-01-30T06:28:48.282Z,12.85
2023-01-30T06:31:16.808Z,14.63
2023-01-30T06:33:45.163Z,14.45
2023-01-30T06:36:13.501Z,13.93
2023-01-30T06:38:41.889Z,15.55
2023-01-30T06:41:11.507Z,13.02
2023-01-30T06:43:40.099Z,19.30
2023-01-30T06:46:08.422Z,20.52
2023-01-30T06:48:36.918Z,15.93
2023-01-30T06:51:05.508Z,11.90
2023-01-30T06:53:34.390Z,13.80
2023-01-30T06:56:03.619Z,32.55
2023-01-30T06:58:33.252Z,17.50
2023-01-30T07:01:02.009Z,18.95
2023-01-30T07:03:30.347Z,13.75
2023-01-30T07:05:58.746Z,15.60
2023-01-30T07:08:27.051Z,17.60
2023-01-30T07:10:55.649Z,12.63
2023-01-30T07:13:24.042Z,14.48
2023-01-30T07:15:53.677Z,15.45
2023-01-30T07:18:21.972Z,14.27
2023-01-30T07:20:51.027Z,16.30
2023-01-30T07:23:19.348Z,13.95
2023-01-30T07:25:47.778Z,12.95
2023-01-30T07:28:16.219Z,13.45
2023-01-30T07:30:44.790Z,15.02
2023-01-30T07:33:14.527Z,16.30
2023-01-30T07:35:42.840Z,12.18
2023-01-30T07:38:11.179Z,15.50
2023-01-30T07:40:39.733Z,14.77
2023-01-30T07:43:11.391Z,13.75
2023-01-30T07:45:42.638Z,14.20
2023-01-30T07:48:15.389Z,12.68
2023-01-30T07:50:44.352Z,15.75
2023-01-30T07:53:16.381Z,15.63
2023-01-30T07:55:45.144Z,12.70
2023-01-30T07:58:15.382Z,14.45
2023-01-30T08:00:44.040Z,14.23
2023-01-30T08:03:16.804Z,11.75
2023-01-30T08:05:47.819Z,14.15
2023-01-30T08:08:16.360Z,14.23
2023-01-30T08:10:45.137Z,20.88
2023-01-30T08:13:13.723Z,20.20
2023-01-30T08:15:42.109Z,15.60
2023-01-30T08:18:10.467Z,12.60
2023-01-30T08:20:40.163Z,10.68
2023-01-30T08:23:08.658Z,13.85
2023-01-30T08:25:37.603Z,12.73
2023-01-30T08:28:06.352Z,11.52
2023-01-30T08:30:34.698Z,11.30
2023-01-30T08:33:03.224Z,12.85
2023-01-30T08:35:31.748Z,15.05
2023-01-30T08:38:03.458Z,10.70
2023-01-30T08:40:31.771Z,13.95
2023-01-30T08:43:00.137Z,10.48
2023-01-30T08:45:29.080Z,12.40
2023-01-30T08:47:59.852Z,12.68
2023-01-30T08:50:28.181Z,11.60
2023-01-30T08:52:56.788Z,10.43
2023-01-30T08:55:26.556Z,11.15
2023-01-30T08:57:57.892Z,13.65
2023-01-30T09:00:26.637Z,11.77
2023-01-30T09:02:55.487Z,11.50
2023-01-30T09:05:24.007Z,14.23
2023-01-30T09:07:52.553Z,12.68
2023-01-30T09:10:22.395Z,10.25
2023-01-30T09:12:52.201Z,12.27
2023-01-30T09:15:20.582Z,10.00
2023-01-30T09:17:48.964Z,12.10
2023-01-30T09:20:19.006Z,10.35
2023-01-30T09:22:48.054Z,11.20
2023-01-30T09:25:17.476Z,10.45
2023-01-30T09:27:49.508Z,10.48
2023-01-30T09:30:20.839Z,15.00
2023-01-30T09:32:49.691Z,11.57
2023-01-30T09:35:18.204Z,16.02
2023-01-30T09:37:50.684Z,9.85
2023-01-30T09:40:23.808Z,16.90
2023-01-30T09:43:18.750Z,13.77
2023-01-30T09:46:02.327Z,10.95
2023-01-30T09:48:37.064Z,9.20
2023-01-30T09:51:40.815Z,15.98
2023-01-30T09:54:29.168Z,11.20
2023-01-30T09:57:21.476Z,8.95
2023-01-30T09:59:58.863Z,17.73
2023-01-30T10:02:48.830Z,8.57
2023-01-30T10:05:17.396Z,9.73
2023-01-30T10:08:09.118Z,7.47
2023-01-30T10:10:57.837Z,9.43
2023-01-30T10:13:55.946Z,14.48
2023-01-30T10:16:31.740Z,6.93
2023-01-30T10:19:40.541Z,5.03
2023-01-30T10:22:21.406Z,7.63
2023-01-30T10:25:04.576Z,8.70
2023-01-30T10:27:34.472Z,5.32
2023-01-30T10:30:06.738Z,8.40
2023-01-30T10:32:43.458Z,6.50
2023-01-30T10:35:20.259Z,5.63
2023-01-30T10:37:59.727Z,5.35
2023-01-30T10:40:33.628Z,4.65
2023-01-30T10:43:11.081Z,6.20
2023-01-30T10:45:45.728Z,13.80
2023-01-30T10:48:45.756Z,9.20
2023-01-30T10:51:29.370Z,5.43
2023-01-30T10:54:03.285Z,6.85
2023-01-30T10:56:42.196Z,5.15
2023-01-30T10:59:25.174Z,6.20
2023-01-30T11:02:03.994Z,5.97
2023-01-30T11:04:35.843Z,3.72
2023-01-30T11:07:07.629Z,6.57
2023-01-30T11:09:44.515Z,4.78
2023-01-30T11:12:13.315Z,4.03
2023-01-30T11:15:09.512Z,4.50
2023-01-30T11:17:41.779Z,3.60
2023-01-30T11:20:17.280Z,6.35
2023-01-30T11:22:51.222Z,4.95
2023-01-30T11:25:22.746Z,3.80
2023-01-30T11:27:57.630Z,4.68
2023-01-30T11:33:12.833Z,2.75
2023-01-30T11:35:54.604Z,3.28
2023-01-30T11:38:27.839Z,2.45
2023-01-30T11:41:19.037Z,4.30
2023-01-30T11:43:48.295Z,3.28
2023-01-30T11:46:21.191Z,3.72
2023-01-30T11:49:32.396Z,5.22
2023-01-30T11:51:46.533Z,3.60
2023-01-30T11:54:20.202Z,6.65
2023-01-30T11:56:52.980Z,5.35
2023-01-30T11:59:28.754Z,5.32
2023-01-30T12:02:10.499Z,5.63
2023-01-30T12:04:39.310Z,6.55
2023-01-30T12:07:19.126Z,5.85
2023-01-30T12:09:50.310Z,5.93
2023-01-30T12:12:34.906Z,8.00
2023-01-30T12:15:23.334Z,8.65
2023-01-30T12:18:00.838Z,6.75
2023-01-30T12:20:44.587Z,8.45
2023-01-30T12:23:17.905Z,5.68
2023-01-30T12:26:00.161Z,7.88
2023-01-30T12:28:37.785Z,13.43
2023-01-30T12:31:13.463Z,10.10
2023-01-30T12:33:42.005Z,8.45
2023-01-30T12:36:21.170Z,10.15
2023-01-30T12:39:15.129Z,7.35
2023-01-30T12:42:17.290Z,8.07
2023-01-30T12:45:03.082Z,6.78
2023-01-30T12:47:52.384Z,9.07
2023-01-30T12:50:36.998Z,8.05
2023-01-30T12:53:29.580Z,6.50
2023-01-30T12:56:33.630Z,9.30
2023-01-30T12:59:12.481Z,8.35
2023-01-30T13:01:56.443Z,10.20
2023-01-30T13:04:56.520Z,6.57
2023-01-30T13:07:41.339Z,6.15
2023-01-30T13:10:18.258Z,8.43
2023-01-30T13:12:55.906Z,7.75
2023-01-30T13:15:33.609Z,11.50
2023-01-30T13:18:14.734Z,7.47
2023-01-30T13:20:55.939Z,7.20
2023-01-30T13:23:34.610Z,8.25
2023-01-30T13:26:07.537Z,6.22
2023-01-30T13:28:39.947Z,5.85
2023-01-30T13:31:14.496Z,8.25
2023-01-30T13:33:45.712Z,6.15
2023-01-30T13:36:19.712Z,9.40
2023-01-30T13:39:05.570Z,5.50
2023-01-30T13:41:40.943Z,6.60
2023-01-30T13:44:18.629Z,6.03
2023-01-30T13:46:50.889Z,6.80
2023-01-30T13:49:27.020Z,3.53
2023-01-30T13:52:01.135Z,2.80
2023-01-30T13:54:47.086Z,2.53
2023-01-30T13:57:25.493Z,3.78
2023-01-30T14:00:27.813Z,4.65
2023-01-30T14:03:34.483Z,2.63
2023-01-30T14:06:32.323Z,3.25
2023-01-30T14:09:02.740Z,3.85
2023-01-30T14:11:45.463Z,3.55
2023-01-30T14:14:32.137Z,5.32
2023-01-30T14:17:13.668Z,4.25
2023-01-30T14:19:46.520Z,5.60
2023-01-30T14:22:26.638Z,7.85
2023-01-30T14:25:47.237Z,4.20
2023-01-30T14:28:45.591Z,4.40
2023-01-30T14:31:19.711Z,5.03
2023-01-30T14:33:52.015Z,4.43
2023-01-30T14:36:37.984Z,2.97
2023-01-30T14:39:38.041Z,3.05
2023-01-30T14:42:24.468Z,3.58
2023-01-30T14:45:10.177Z,4.97
2023-01-30T14:47:47.248Z,4.22
2023-01-30T14:50:20.970Z,4.40
2023-01-30T14:52:51.304Z,5.75
2023-01-30T14:55:23.637Z,3.63
2023-01-30T14:57:56.855Z,3.60
2023-01-30T15:00:29.287Z,4.13
2023-01-30T15:03:00.298Z,4.38
2023-01-30T15:05:43.287Z,5.68
2023-01-30T15:08:16.192Z,3.33
2023-01-30T15:10:58.348Z,6.82
2023-01-30T15:13:46.254Z,6.07
2023-01-30T15:16:36.858Z,5.95
2023-01-30T15:19:33.087Z,6.55
2023-01-30T15:22:10.117Z,5.85
2023-01-30T15:25:03.401Z,9.10
2023-01-30T15:27:37.512Z,6.10
2023-01-30T15:30:22.403Z,6.90
2023-01-30T15:32:52.003Z,6.35
2023-01-30T15:35:25.517Z,4.93
2023-01-30T15:37:56.197Z,5.30
2023-01-30T15:40:28.054Z,11.15
2023-01-30T15:43:07.901Z,7.22
2023-01-30T15:45:43.589Z,8.95
2023-01-30T15:48:39.000Z,8.90
2023-01-30T15:51:10.251Z,5.63
2023-01-30T15:53:43.164Z,9.45
2023-01-30T15:56:19.250Z,5.85
2023-01-30T15:58:48.042Z,9.30
2023-01-30T16:01:21.757Z,8.27
2023-01-30T16:03:53.209Z,8.38
2023-01-30T16:06:30.299Z,5.68
2023-01-30T16:09:01.420Z,7.75
2023-01-30T16:11:42.735Z,6.28
2023-01-30T16:14:14.665Z,8.57
2023-01-30T16:16:44.987Z,7.78
2023-01-30T16:19:22.384Z,8.35
2023-01-30T16:21:51.418Z,8.45
2023-01-30T16:24:22.495Z,6.95
2023-01-30T16:26:56.255Z,7.30
2023-01-30T16:29:27.280Z,7.40
2023-01-30T16:31:56.480Z,7.53
2023-01-30T16:34:33.737Z,8.45
2023-01-30T16:37:07.567Z,7.15
2023-01-30T16:39:37.665Z,7.32
2023-01-30T16:42:22.198Z,7.85
2023-01-30T16:44:50.824Z,8.98
2023-01-30T16:47:25.099Z,9.23
2023-01-30T16:49:54.315Z,6.57
2023-01-30T16:52:24.957Z,5.25
2023-01-30T16:54:55.820Z,7.82
2023-01-30T16:57:36.229Z,5.03
2023-01-30T17:00:10.082Z,5.75
2023-01-30T17:02:42.493Z,9.75
2023-01-30T17:05:20.273Z,7.18
2023-01-30T17:07:49.684Z,7.88
2023-01-30T17:11:04.495Z,7.30
2023-01-30T17:13:36.897Z,5.35
2023-01-30T17:16:33.512Z,6.05
2023-01-30T17:19:02.625Z,5.97
2023-01-30T17:21:43.535Z,8.10
2023-01-30T17:24:15.450Z,6.82
2023-01-30T17:26:44.477Z,9.77
2023-01-30T17:29:28.981Z,9.15
2023-01-30T17:32:11.415Z,6.07
2023-01-30T17:34:41.216Z,10.90
2023-01-30T17:37:12.841Z,8.85
2023-01-30T17:39:41.422Z,8.32
2023-01-30T17:42:11.582Z,7.82
2023-01-30T17:44:41.959Z,8.32
2023-01-30T17:47:11.838Z,8.18
2023-01-30T17:49:40.678Z,7.78
2023-01-30T17:52:09.430Z,7.03
2023-01-30T17:54:38.066Z,6.30
2023-01-30T17:57:09.692Z,7.45
2023-01-30T17:59:38.505Z,9.85
2023-01-30T18:02:11.622Z,10.60
2023-01-30T18:04:40.601Z,7.97
2023-01-30T18:07:13.887Z,8.10
2023-01-30T18:09:42.520Z,7.80
2023-01-30T18:12:12.329Z,7.97
2023-01-30T18:14:41.174Z,8.48
2023-01-30T18:17:11.252Z,9.95
2023-01-30T18:19:40.063Z,6.97
2023-01-30T18:22:08.983Z,9.50
2023-01-30T18:24:37.833Z,10.93
2023-01-30T18:27:06.636Z,7.28
2023-01-30T18:29:35.566Z,10.00
2023-01-30T18:32:05.875Z,8.15
2023-01-30T18:34:37.639Z,12.02
2023-01-30T18:37:06.473Z,11.23
2023-01-30T18:39:36.675Z,10.25
2023-01-30T18:42:06.329Z,7.60
2023-01-30T18:44:35.789Z,7.32
2023-01-30T18:47:05.300Z,8.20
2023-01-30T18:49:35.412Z,9.95
2023-01-30T18:52:04.442Z,8.77
2023-01-30T18:54:33.237Z,8.25
2023-01-30T18:57:02.274Z,10.55
2023-01-30T18:59:31.269Z,9.45
2023-01-30T19:02:00.270Z,10.30
2023-01-30T19:04:29.106Z,9.60
2023-01-30T19:06:59.292Z,13.93
2023-01-30T19:09:28.154Z,13.85
2023-01-30T19:12:14.798Z,11.73
2023-01-30T19:14:43.836Z,11.07
2023-01-30T19:17:14.263Z,8.93
2023-01-30T19:19:44.054Z,10.88
2023-01-30T19:22:14.341Z,9.82
2023-01-30T19:24:43.571Z,10.85
2023-01-30T19:27:13.840Z,8.10
2023-01-30T19:29:43.637Z,7.47
2023-01-30T19:32:12.557Z,10.60
2023-01-30T19:34:41.329Z,9.63
2023-01-30T19:37:10.428Z,10.07
2023-01-30T19:39:40.731Z,12.43
2023-01-30T19:42:09.642Z,8.43
2023-01-30T19:44:41.056Z,9.70
2023-01-30T19:47:10.189Z,7.43
2023-01-30T19:49:39.000Z,12.75
2023-01-30T19:52:07.801Z,11.43
2023-01-30T19:54:36.576Z,8.63
2023-01-30T19:57:06.967Z,11.02
2023-01-30T19:59:38.731Z,7.22
2023-01-30T20:02:07.843Z,14.88
2023-01-30T20:04:37.946Z,12.30
2023-01-30T20:07:06.701Z,10.82
2023-01-30T20:09:35.465Z,7.97
2023-01-30T20:12:04.498Z,8.80
2023-01-30T20:14:34.740Z,11.82
2023-01-30T20:17:03.567Z,9.45
2023-01-30T20:19:32.425Z,14.05
2023-01-30T20:22:06.826Z,10.40
2023-01-30T20:24:35.699Z,13.55
2023-01-30T20:27:05.083Z,16.70
2023-01-30T20:29:35.581Z,10.45
2023-01-30T20:32:04.588Z,8.63
2023-01-30T20:34:33.465Z,8.13
2023-01-30T20:37:02.386Z,10.65
2023-01-30T20:39:31.460Z,9.02
2023-01-30T20:42:00.317Z,12.52
2023-01-30T20:44:29.353Z,11.85
2023-01-30T20:47:00.020Z,14.55
2023-01-30T20:49:28.878Z,10.68
2023-01-30T20:51:57.636Z,9.88
2023-01-30T20:54:26.497Z,9.95
2023-01-30T20:56:56.605Z,12.23
2023-01-30T20:59:27.319Z,7.55
2023-01-30T21:01:56.203Z,10.45
2023-01-30T21:04:26.404Z,10.25
2023-01-30T21:06:55.515Z,8.30
2023-01-30T21:09:25.038Z,12.88
2023-01-30T21:11:55.380Z,14.32
2023-01-30T21:14:26.297Z,11.18
2023-01-30T21:16:55.561Z,14.68
2023-01-30T21:19:25.675Z,12.40
2023-01-30T21:21:56.177Z,13.15
2023-01-30T21:24:26.280Z,10.23
2023-01-30T21:26:55.459Z,17.75
2023-01-30T21:29:25.138Z,10.98
2023-01-30T21:31:54.682Z,16.05
2023-01-30T21:34:25.014Z,11.63
2023-01-30T21:37:11.466Z,11.23
2023-01-30T21:39:57.735Z,12.38
2023-01-30T21:42:44.195Z,14.65
2023-01-30T21:45:12.761Z,9.77
2023-01-30T21:47:41.418Z,11.90
2023-01-30T21:50:12.622Z,14.02
2023-01-30T21:52:41.232Z,13.57
2023-01-30T21:55:10.545Z,16.70
2023-01-30T21:57:39.335Z,10.02
2023-01-30T22:00:09.262Z,10.98
2023-01-30T22:02:37.924Z,16.40
2023-01-30T22:05:07.332Z,10.48
2023-01-30T22:07:37.664Z,14.43
2023-01-30T22:10:06.753Z,10.48
2023-01-30T22:12:38.688Z,12.05
2023-01-30T22:15:08.961Z,11.50
2023-01-30T22:17:37.574Z,12.18
2023-01-30T22:20:06.752Z,14.18
2023-01-30T22:22:37.229Z,8.85
2023-01-30T22:25:06.490Z,10.45
2023-01-30T22:27:35.214Z,12.95
2023-01-30T22:30:03.852Z,10.63
2023-01-30T22:32:32.530Z,12.85
2023-01-30T22:35:01.169Z,12.73
2023-01-30T22:37:29.941Z,9.02
2023-01-30T22:40:00.105Z,14.52
2023-01-30T22:42:28.931Z,14.48
2023-01-30T22:44:57.671Z,10.15
2023-01-30T22:47:26.357Z,11.00
2023-01-30T22:49:55.050Z,9.80
2023-01-30T22:52:23.789Z,9.70
2023-01-30T22:54:52.366Z,11.13
2023-01-30T22:57:22.428Z,11.68
2023-01-30T22:59:52.071Z,15.35
2023-01-30T23:02:20.812Z,15.05
2023-01-30T23:04:50.527Z,8.07
2023-01-30T23:07:21.152Z,15.02
2023-01-30T23:09:49.772Z,8.65
2023-01-30T23:12:36.694Z,11.88
2023-01-30T23:15:08.016Z,10.77
2023-01-30T23:17:54.360Z,15.88
2023-01-30T23:20:22.977Z,9.30
2023-01-30T23:22:53.188Z,12.35
2023-01-30T23:25:22.183Z,7.82
2023-01-30T23:27:50.975Z,12.73
2023-01-30T23:30:21.355Z,15.13
2023-01-30T23:32:49.976Z,9.70
2023-01-30T23:35:19.055Z,13.40
2023-01-30T23:38:05.860Z,8.52
2023-01-30T23:40:34.625Z,13.38
2023-01-30T23:43:03.509Z,13.82
2023-01-30T23:45:35.228Z,11.27
2023-01-30T23:48:04.292Z,13.88
2023-01-30T23:50:33.292Z,13.30
2023-01-30T23:53:01.902Z,11.82
2023-01-30T23:55:32.508Z,9.73
2023-01-30T23:58:02.190Z,10.48
